Time;durP1;ratioP1;P1;durP2;ratioP2;P2;SDS_P1;SDS_P2;PMS_P1;PMS_P2;Temp;Humidity;BMP_temperature;BMP_pressure;BME280_temperature;BME280_humidity;BME280_pressure;Samples;Min_cycle;Max_cycle;Signal;HPM_P1;HPM_P2
2021/12/14 00:01:25;;;;;;;1.47;1.23;;;19.00;59.30;;;;;;4997774;28;20218;-25
2021/12/14 00:03:57;;;;;;;2.03;1.30;;;19.00;59.30;;;;;;4981060;28;20212;-22
2021/12/14 00:06:24;;;;;;;1.50;1.23;;;19.00;59.50;;;;;;4980085;28;20227;-22
2021/12/14 00:08:57;;;;;;;1.63;1.30;;;18.90;59.40;;;;;;4979922;28;20583;-23
2021/12/14 00:17:29;;;;;;;1.30;1.20;;;18.90;59.70;;;;;;4982007;28;20659;-21
2021/12/14 00:19:59;;;;;;;1.60;1.20;;;18.90;59.70;;;;;;4993494;28;20213;-23
2021/12/14 00:24:05;;;;;;;1.40;1.30;;;18.80;59.70;;;;;;4980837;28;20268;-22
2021/12/14 00:25:18;;;;;;;1.50;1.40;;;18.80;59.80;;;;;;4975497;28;20228;-23
2021/12/14 00:27:43;;;;;;;2.33;1.27;;;18.80;59.80;;;;;;4996813;28;20198;-22
2021/12/14 00:30:10;;;;;;;1.30;1.20;;;18.80;59.80;;;;;;4997958;28;20576;-24
2021/12/14 00:32:38;;;;;;;1.83;1.30;;;18.70;59.80;;;;;;4984274;28;20208;-22
2021/12/14 00:35:13;;;;;;;1.87;1.40;;;18.70;60.00;;;;;;4998614;28;20245;-21
2021/12/14 00:37:42;;;;;;;1.33;1.23;;;18.70;60.10;;;;;;4984884;28;20217;-22
2021/12/14 00:40:31;;;;;;;1.23;1.13;;;18.70;60.20;;;;;;5000973;28;20297;-20
2021/12/14 00:42:57;;;;;;;1.10;1.00;;;18.70;60.30;;;;;;4984526;28;20297;-26
2021/12/14 00:45:29;;;;;;;1.20;1.10;;;18.60;60.40;;;;;;5001356;28;20616;-23
2021/12/14 00:47:57;;;;;;;1.20;1.10;;;18.60;60.50;;;;;;5001567;28;20193;-24
2021/12/14 00:50:25;;;;;;;1.60;1.17;;;18.60;60.60;;;;;;5000987;28;20212;-23
2021/12/14 00:52:51;;;;;;;1.30;1.20;;;18.60;60.70;;;;;;5001615;28;20722;-23
2021/12/14 00:55:30;;;;;;;1.20;1.07;;;18.60;61.50;;;;;;5000832;28;20180;-22
2021/12/14 00:57:57;;;;;;;1.40;1.20;;;18.60;61.00;;;;;;5001492;28;20205;-24
2021/12/14 01:00:28;;;;;;;1.43;1.10;;;18.50;61.60;;;;;;4984061;28;20201;-22
2021/12/14 01:02:54;;;;;;;1.30;1.10;;;18.50;61.00;;;;;;5001489;28;20194;-21
2021/12/14 01:05:26;;;;;;;1.30;1.20;;;18.50;60.90;;;;;;4983754;28;20759;-22
2021/12/14 01:07:52;;;;;;;1.90;1.17;;;18.50;61.80;;;;;;5000623;28;20206;-24
2021/12/14 01:10:39;;;;;;;1.10;1.00;;;18.50;61.20;;;;;;4983720;28;20224;-21
2021/12/14 01:13:08;;;;;;;1.33;1.03;;;18.50;61.30;;;;;;4984004;28;20255;-23
2021/12/14 01:16:31;;;;;;;1.20;1.10;;;18.50;61.50;;;;;;5000140;28;20293;-22
2021/12/14 01:24:01;;;;;;;1.03;0.93;;;18.40;61.70;;;;;;5000846;28;20202;-21
2021/12/14 01:26:29;;;;;;;1.20;1.00;;;18.40;61.70;;;;;;4983446;28;20226;-22
2021/12/14 01:28:56;;;;;;;1.30;1.10;;;18.40;61.80;;;;;;4983413;28;20464;-24
2021/12/14 01:31:32;;;;;;;1.07;1.00;;;18.40;61.90;;;;;;5000841;28;20562;-23
2021/12/14 01:34:02;;;;;;;1.30;1.20;;;18.40;62.00;;;;;;5000428;28;20217;-23
2021/12/14 01:36:38;;;;;;;1.10;1.00;;;18.30;62.00;;;;;;5000067;28;20190;-23
2021/12/14 01:39:34;;;;;;;0.80;0.80;;;18.30;62.00;;;;;;4982956;28;20207;-24
2021/12/14 01:42:09;;;;;;;1.20;1.10;;;18.30;62.20;;;;;;4982122;28;20205;-21
2021/12/14 01:45:07;;;;;;;1.03;0.93;;;18.30;62.10;;;;;;4999480;28;20211;-25
2021/12/14 01:47:37;;;;;;;1.40;1.10;;;18.30;62.30;;;;;;4999802;28;20202;-23
2021/12/14 01:50:05;;;;;;;1.50;1.10;;;18.20;62.20;;;;;;4983198;28;20267;-24
2021/12/14 01:52:33;;;;;;;2.23;0.97;;;18.30;62.30;;;;;;4982454;28;20278;-21
2021/12/14 01:55:22;;;;;;;1.07;0.97;;;18.20;62.30;;;;;;5000458;28;20241;-23
2021/12/14 01:57:49;;;;;;;1.57;1.30;;;18.20;62.50;;;;;;4999386;28;20221;-24
2021/12/14 02:00:23;;;;;;;1.13;1.03;;;18.20;62.60;;;;;;4982536;28;20186;-21
2021/12/14 02:02:50;;;;;;;1.47;0.90;;;18.20;62.50;;;;;;4982290;28;20195;-24
2021/12/14 02:05:22;;;;;;;1.00;1.00;;;18.20;62.70;;;;;;4982161;28;20221;-23
2021/12/14 02:07:49;;;;;;;1.30;0.93;;;18.20;62.50;;;;;;4999565;28;20232;-23
2021/12/14 02:10:37;;;;;;;1.10;1.00;;;18.20;62.80;;;;;;4999777;28;20213;-23
2021/12/14 02:13:05;;;;;;;1.10;1.00;;;18.20;62.90;;;;;;4998643;28;20197;-23
2021/12/14 02:15:37;;;;;;;1.10;1.00;;;18.20;62.80;;;;;;4982433;28;20202;-23
2021/12/14 02:18:10;;;;;;;1.00;0.90;;;18.20;62.80;;;;;;4983190;28;20360;-21
2021/12/14 02:20:38;;;;;;;1.13;1.03;;;18.10;62.90;;;;;;4982438;28;20206;-20
2021/12/14 02:23:06;;;;;;;1.17;1.07;;;18.10;63.00;;;;;;4982396;28;20174;-24
2021/12/14 02:25:33;;;;;;;0.77;0.77;;;18.10;63.00;;;;;;4998973;28;20217;-21
2021/12/14 02:28:07;;;;;;;1.03;0.90;;;18.10;62.90;;;;;;4981677;28;20201;-21
2021/12/14 02:30:33;;;;;;;1.07;0.90;;;18.10;62.90;;;;;;4982234;28;20208;-24
2021/12/14 02:33:11;;;;;;;1.00;0.90;;;18.10;63.00;;;;;;4999787;28;20480;-21
2021/12/14 02:35:37;;;;;;;1.20;1.00;;;18.10;63.10;;;;;;4999196;28;20196;-22
2021/12/14 02:38:10;;;;;;;1.10;1.00;;;18.10;63.10;;;;;;4999754;28;20200;-21
2021/12/14 02:40:54;;;;;;;1.37;1.00;;;18.10;63.00;;;;;;4999508;28;20514;-22
2021/12/14 02:43:26;;;;;;;1.30;1.20;;;18.00;63.20;;;;;;4981734;28;20191;-23
2021/12/14 02:46:01;;;;;;;1.00;0.90;;;18.00;63.10;;;;;;4981746;28;20213;-22
2021/12/14 02:48:27;;;;;;;1.20;1.10;;;18.00;63.20;;;;;;4981730;28;20489;-23
2021/12/14 02:50:52;;;;;;;2.03;0.90;;;18.00;63.30;;;;;;4981591;28;20603;-23
2021/12/14 02:53:18;;;;;;;0.97;0.93;;;18.00;63.50;;;;;;4993485;28;20218;-23
2021/12/14 02:55:46;;;;;;;1.83;0.97;;;18.00;63.50;;;;;;4994692;28;20593;-22
2021/12/14 02:58:12;;;;;;;1.10;0.97;;;18.00;63.50;;;;;;4998736;28;20204;-23
2021/12/14 03:00:46;;;;;;;1.17;1.07;;;18.00;63.50;;;;;;4998643;28;20208;-21
2021/12/14 03:03:14;;;;;;;1.10;1.00;;;18.00;63.60;;;;;;4981853;28;20490;-22
2021/12/14 03:05:42;;;;;;;0.97;0.97;;;18.00;63.60;;;;;;4991861;28;20276;-25
2021/12/14 03:08:18;;;;;;;1.00;1.00;;;18.00;63.60;;;;;;4978627;28;20580;-20
2021/12/14 03:11:14;;;;;;;1.00;0.90;;;17.90;63.80;;;;;;4945072;28;20473;-24
2021/12/14 03:13:47;;;;;;;0.90;0.90;;;17.90;63.70;;;;;;4977266;28;20215;-24
2021/12/14 03:16:26;;;;;;;1.50;1.10;;;17.90;63.80;;;;;;4962415;28;20305;-23
2021/12/14 03:18:55;;;;;;;1.07;0.97;;;17.90;63.80;;;;;;4978467;28;20273;-21
2021/12/14 03:21:24;;;;;;;1.53;1.00;;;17.90;63.80;;;;;;4979488;28;20206;-24
2021/12/14 03:23:52;;;;;;;1.17;0.90;;;17.90;64.00;;;;;;4979148;28;20170;-25
2021/12/14 03:26:23;;;;;;;1.33;0.90;;;17.90;63.90;;;;;;4962463;28;20212;-19
2021/12/14 03:28:52;;;;;;;1.23;1.03;;;17.90;63.90;;;;;;4978689;28;20603;-22
2021/12/14 03:31:32;;;;;;;0.90;0.90;;;17.80;63.90;;;;;;4978557;28;20263;-23
2021/12/14 03:34:07;;;;;;;1.13;0.90;;;17.80;64.00;;;;;;4978081;28;20198;-22
2021/12/14 03:36:39;;;;;;;0.90;0.90;;;17.80;63.90;;;;;;4962293;28;20199;-23
2021/12/14 03:39:08;;;;;;;1.17;0.97;;;17.80;64.00;;;;;;4979819;28;20219;-22
2021/12/14 03:41:40;;;;;;;0.80;0.80;;;17.80;64.10;;;;;;4998739;28;20193;-22
2021/12/14 03:44:14;;;;;;;0.80;0.80;;;17.80;64.20;;;;;;4999125;28;20165;-24
2021/12/14 03:46:49;;;;;;;1.03;0.93;;;17.80;64.30;;;;;;4998032;28;20219;-26
2021/12/14 03:49:17;;;;;;;0.87;0.83;;;17.70;64.30;;;;;;4998651;28;20185;-24
2021/12/14 03:51:44;;;;;;;1.73;0.80;;;17.70;64.40;;;;;;4980875;28;20197;-23
2021/12/14 03:54:13;;;;;;;1.20;1.10;;;17.70;64.60;;;;;;4997338;28;20191;-25
2021/12/14 03:56:39;;;;;;;1.00;0.90;;;17.70;64.70;;;;;;4997710;28;20220;-24
2021/12/14 03:59:05;;;;;;;0.90;0.80;;;19.60;58.80;;;;;;4980530;28;20292;-22
2021/12/14 04:01:36;;;;;;;1.00;0.93;;;21.40;52.10;;;;;;4980931;28;20618;-24
2021/12/14 04:04:10;;;;;;;0.80;0.80;;;21.80;50.40;;;;;;4980995;28;20220;-23
2021/12/14 04:06:38;;;;;;;0.90;0.90;;;21.80;50.00;;;;;;4984200;28;20475;-20
2021/12/14 04:09:08;;;;;;;0.73;0.73;;;21.80;49.90;;;;;;5001744;28;20206;-21
2021/12/14 04:11:34;;;;;;;1.00;0.80;;;22.00;49.70;;;;;;5001459;28;20296;-22
2021/12/14 04:14:02;;;;;;;0.80;0.80;;;22.60;49.00;;;;;;4984662;28;20300;-24
2021/12/14 04:16:28;;;;;;;1.10;1.00;;;22.90;48.30;;;;;;4984995;28;20624;-23
2021/12/14 04:18:55;;;;;;;1.00;0.90;;;23.00;48.00;;;;;;4984383;28;20205;-24
2021/12/14 04:21:22;;;;;;;1.07;0.90;;;22.90;47.90;;;;;;4984286;28;20202;-21
2021/12/14 04:23:52;;;;;;;0.73;0.70;;;23.00;47.80;;;;;;4984576;28;20202;-24
2021/12/14 04:26:18;;;;;;;0.80;0.80;;;23.40;47.40;;;;;;4984818;28;20206;-22
2021/12/14 04:28:49;;;;;;;1.07;0.90;;;23.80;46.90;;;;;;4984381;28;20286;-23
2021/12/14 04:31:16;;;;;;;0.83;0.80;;;23.80;46.50;;;;;;4984370;28;20267;-23
2021/12/14 04:33:46;;;;;;;0.80;0.80;;;23.70;46.70;;;;;;5001206;28;20289;-23
2021/12/14 04:36:15;;;;;;;1.07;0.90;;;23.80;46.60;;;;;;4984239;28;20293;-23
2021/12/14 04:38:56;;;;;;;0.90;0.90;;;23.70;46.70;;;;;;5000495;28;20190;-21
2021/12/14 04:52:33;;;;;;;0.97;0.90;;;23.90;46.50;;;;;;5001332;28;20713;-21
2021/12/14 04:55:09;;;;;;;1.57;0.90;;;23.50;46.80;;;;;;4983961;28;20194;-22
2021/12/14 04:57:43;;;;;;;1.10;1.00;;;23.30;47.10;;;;;;5000451;28;20196;-22
2021/12/14 05:00:15;;;;;;;0.80;0.80;;;23.00;47.50;;;;;;4983427;28;20201;-21
2021/12/14 05:02:42;;;;;;;1.03;0.93;;;22.70;47.90;;;;;;5000401;28;20559;-24
2021/12/14 05:05:09;;;;;;;0.97;0.90;;;22.50;48.30;;;;;;4983401;28;20233;-25
2021/12/14 05:10:08;;;;;;;0.80;0.80;;;22.20;49.00;;;;;;5000314;28;20340;-21
2021/12/14 05:12:36;;;;;;;1.10;1.00;;;22.00;49.30;;;;;;4983676;28;20202;-22
2021/12/14 05:15:07;;;;;;;0.90;0.87;;;21.80;49.60;;;;;;4983203;28;20217;-24
2021/12/14 05:17:42;;;;;;;1.10;0.90;;;21.60;50.10;;;;;;4982998;28;20213;-22
2021/12/14 05:20:10;;;;;;;0.80;0.80;;;21.30;50.70;;;;;;5000758;28;20197;-25
2021/12/14 05:22:38;;;;;;;1.43;1.10;;;21.10;51.20;;;;;;5000073;28;20245;-22
2021/12/14 05:25:21;;;;;;;1.10;1.00;;;20.90;51.80;;;;;;5000002;28;20209;-22
2021/12/14 05:27:52;;;;;;;0.90;0.90;;;20.70;52.30;;;;;;4981831;28;20209;-22
2021/12/14 05:30:24;;;;;;;1.10;0.87;;;20.50;52.90;;;;;;5000437;28;20280;-20
2021/12/14 05:33:06;;;;;;;0.80;0.80;;;20.30;53.50;;;;;;4982976;28;20596;-23
2021/12/14 05:35:32;;;;;;;0.83;0.83;;;20.20;54.00;;;;;;4999941;28;20195;-20
2021/12/14 05:38:02;;;;;;;1.13;0.90;;;20.10;54.50;;;;;;4982181;28;20209;-21
2021/12/14 05:43:07;;;;;;;1.20;1.10;;;19.80;55.30;;;;;;4999877;28;20563;-23
2021/12/14 05:45:41;;;;;;;0.97;0.90;;;19.80;55.60;;;;;;4982574;28;20212;-23
2021/12/14 05:48:09;;;;;;;1.10;0.90;;;19.80;55.90;;;;;;4982691;28;20217;-25
2021/12/14 05:50:45;;;;;;;1.10;1.00;;;20.00;55.60;;;;;;4982285;28;20203;-24
2021/12/14 05:53:26;;;;;;;0.90;0.90;;;20.40;54.50;;;;;;4998321;28;20198;-21
2021/12/14 05:55:52;;;;;;;0.73;0.73;;;21.10;53.10;;;;;;4998724;28;20217;-22
2021/12/14 05:58:21;;;;;;;1.00;0.80;;;22.10;51.30;;;;;;4978760;28;20369;-21
2021/12/14 06:00:51;;;;;;;0.80;0.80;;;23.10;49.00;;;;;;4976926;28;20489;-22
2021/12/14 06:03:22;;;;;;;1.23;1.10;;;23.90;47.60;;;;;;4976542;28;20275;-25
2021/12/14 06:05:48;;;;;;;1.20;1.07;;;24.20;46.70;;;;;;4993488;28;20214;-24
2021/12/14 06:08:26;;;;;;;1.50;0.87;;;24.30;46.20;;;;;;4975646;28;20593;-21
2021/12/14 06:10:53;;;;;;;0.70;0.70;;;24.40;45.90;;;;;;4976380;28;20229;-23
2021/12/14 06:13:19;;;;;;;1.63;0.90;;;24.50;45.80;;;;;;4992294;28;20284;-24
2021/12/14 06:15:46;;;;;;;1.33;1.00;;;24.40;45.80;;;;;;4993712;28;20632;-24
2021/12/14 06:18:20;;;;;;;1.10;1.00;;;24.10;46.00;;;;;;4975468;28;20547;-20
2021/12/14 06:20:45;;;;;;;1.03;0.83;;;24.00;46.10;;;;;;4993325;28;20199;-22
2021/12/14 06:23:12;;;;;;;1.63;1.10;;;24.00;46.20;;;;;;4993162;28;20211;-23
2021/12/14 06:25:39;;;;;;;0.80;0.80;;;24.00;46.20;;;;;;4991956;28;20230;-21
2021/12/14 06:28:05;;;;;;;1.10;1.00;;;23.90;46.30;;;;;;4990666;28;20198;-22
2021/12/14 06:30:35;;;;;;;0.70;0.70;;;23.70;46.50;;;;;;4990025;28;20204;-22
2021/12/14 06:33:07;;;;;;;0.90;0.90;;;23.40;46.80;;;;;;4990264;28;20237;-23
2021/12/14 06:35:46;;;;;;;1.03;0.93;;;23.20;47.10;;;;;;4990559;28;20197;-24
2021/12/14 06:38:28;;;;;;;1.47;0.90;;;23.00;47.40;;;;;;4991499;28;20197;-22
2021/12/14 06:41:07;;;;;;;1.30;0.90;;;22.80;47.80;;;;;;4991151;28;20311;-25
2021/12/14 06:43:39;;;;;;;0.80;0.80;;;22.50;48.10;;;;;;4991547;28;20192;-22
2021/12/14 06:46:15;;;;;;;0.97;0.80;;;22.30;48.60;;;;;;4989932;28;20510;-21
2021/12/14 06:48:59;;;;;;;2.30;0.80;;;22.00;49.00;;;;;;4990794;28;20206;-24
2021/12/14 06:51:28;;;;;;;0.97;0.90;;;21.90;49.40;;;;;;4991373;28;20206;-23
2021/12/14 06:54:02;;;;;;;1.00;0.90;;;21.60;49.80;;;;;;4973211;28;20206;-22
2021/12/14 06:56:30;;;;;;;1.20;0.90;;;21.40;50.30;;;;;;4985424;28;20299;-22
2021/12/14 06:58:59;;;;;;;0.70;0.70;;;21.20;50.90;;;;;;4991028;28;20277;-20
2021/12/14 07:01:48;;;;;;;1.60;1.00;;;20.90;51.40;;;;;;4973794;28;20303;-23
2021/12/14 07:04:24;;;;;;;0.80;0.80;;;20.70;52.20;;;;;;4990472;28;20199;-20
2021/12/14 07:06:58;;;;;;;1.53;0.90;;;20.50;52.90;;;;;;4990454;28;20481;-23
2021/12/14 07:09:31;;;;;;;1.30;0.80;;;20.50;53.10;;;;;;4990335;28;20226;-22
2021/12/14 07:11:58;;;;;;;2.07;0.90;;;20.70;53.00;;;;;;4974274;28;20201;-23
2021/12/14 07:14:27;;;;;;;2.33;1.07;;;20.90;52.70;;;;;;4989588;28;20198;-24
2021/12/14 07:17:28;;;;;;;1.23;1.00;;;21.20;52.00;;;;;;4991274;28;20297;-23
2021/12/14 07:20:05;;;;;;;1.10;1.00;;;21.80;51.10;;;;;;4971040;28;20359;-23
2021/12/14 07:22:40;;;;;;;1.20;1.10;;;22.60;49.60;;;;;;4973820;28;20459;-26
2021/12/14 07:25:06;;;;;;;1.70;1.10;;;23.30;48.30;;;;;;4991860;28;20209;-21
2021/12/14 07:27:43;;;;;;;2.00;1.00;;;23.90;47.20;;;;;;4996877;28;20217;-24
2021/12/14 07:30:38;;;;;;;0.80;0.80;;;24.10;46.60;;;;;;4996878;28;20258;-21
2021/12/14 07:33:19;;;;;;;1.30;1.07;;;24.20;46.40;;;;;;4969796;28;20218;-21
2021/12/14 07:36:08;;;;;;;1.90;1.10;;;24.20;46.30;;;;;;4976353;28;20214;-25
2021/12/14 07:38:43;;;;;;;2.13;0.90;;;24.20;46.30;;;;;;4976975;28;20190;-23
2021/12/14 07:41:14;;;;;;;2.50;0.90;;;24.30;46.20;;;;;;4976922;28;20509;-22
2021/12/14 07:43:53;;;;;;;1.10;0.97;;;24.20;46.20;;;;;;4977613;28;20210;-22
2021/12/14 07:46:31;;;;;;;1.17;0.80;;;24.00;46.30;;;;;;4977164;28;20312;-22
2021/12/14 07:49:17;;;;;;;1.73;1.00;;;23.90;46.40;;;;;;4976471;28;20209;-24
2021/12/14 07:51:44;;;;;;;2.27;1.00;;;23.70;46.80;;;;;;4953004;28;20189;-24
2021/12/14 07:54:20;;;;;;;2.57;1.10;;;23.50;47.30;;;;;;4976608;28;20727;-24
2021/12/14 07:56:51;;;;;;;3.83;1.30;;;23.20;47.60;;;;;;4956024;28;20677;-23
2021/12/14 07:59:27;;;;;;;1.20;1.00;;;23.00;47.90;;;;;;4977180;28;20202;-25
2021/12/14 08:02:14;;;;;;;2.03;1.00;;;22.80;48.20;;;;;;4960291;28;20317;-23
2021/12/14 08:04:43;;;;;;;1.30;1.20;;;22.50;48.70;;;;;;4976546;28;20201;-23
2021/12/14 08:07:20;;;;;;;2.77;1.17;;;22.30;49.10;;;;;;4976505;28;20271;-21
2021/12/14 08:09:51;;;;;;;2.17;1.00;;;22.10;49.40;;;;;;4977153;28;20673;-22
2021/12/14 08:12:45;;;;;;;2.70;1.10;;;21.90;49.80;;;;;;4959477;28;20209;-23
2021/12/14 08:15:39;;;;;;;1.57;1.20;;;21.70;50.30;;;;;;4948661;28;20213;-25
2021/12/14 08:18:18;;;;;;;1.10;1.00;;;21.50;50.80;;;;;;4959994;28;20575;-24
2021/12/14 08:20:48;;;;;;;1.43;1.00;;;21.20;51.40;;;;;;4960045;28;20588;-24
2021/12/14 08:23:20;;;;;;;2.10;1.20;;;21.00;52.00;;;;;;4960116;28;20189;-22
2021/12/14 08:25:45;;;;;;;1.63;1.10;;;20.80;52.50;;;;;;4976589;28;20230;-22
2021/12/14 08:28:12;;;;;;;1.60;1.30;;;20.70;53.10;;;;;;4976240;28;20206;-21
2021/12/14 08:30:40;;;;;;;2.17;1.30;;;20.60;53.50;;;;;;4976272;28;20297;-21
2021/12/14 08:33:21;;;;;;;1.70;1.20;;;20.60;53.70;;;;;;4976692;28;20200;-21
2021/12/14 08:35:47;;;;;;;1.53;1.10;;;20.60;53.70;;;;;;4976592;28;20208;-26
2021/12/14 08:38:16;;;;;;;3.07;1.20;;;20.80;53.50;;;;;;4958865;28;20210;-23
2021/12/14 08:40:50;;;;;;;1.20;1.10;;;21.20;52.80;;;;;;4976891;28;20768;-24
2021/12/14 08:43:26;;;;;;;1.37;1.20;;;21.80;51.40;;;;;;4976936;28;20204;-24
2021/12/14 08:46:04;;;;;;;0.93;0.90;;;22.10;50.50;;;;;;4976426;28;20626;-22
2021/12/14 08:48:37;;;;;;;2.70;1.20;;;22.30;50.10;;;;;;4976170;28;20202;-25
2021/12/14 08:51:14;;;;;;;1.73;1.23;;;22.10;49.90;;;;;;4977190;28;20198;-23
2021/12/14 08:53:56;;;;;;;1.47;1.00;;;21.90;50.30;;;;;;4963188;28;20214;-20
2021/12/14 08:56:24;;;;;;;1.10;1.00;;;21.70;50.70;;;;;;4979949;28;20212;-20
2021/12/14 08:58:50;;;;;;;1.90;1.00;;;21.40;51.10;;;;;;4962324;28;20234;-23
2021/12/14 09:01:23;;;;;;;1.23;1.00;;;21.30;51.50;;;;;;4978865;28;20475;-23
2021/12/14 09:04:15;;;;;;;2.17;1.27;;;21.20;51.80;;;;;;4979914;28;20210;-22
2021/12/14 09:06:45;;;;;;;1.17;0.97;;;21.30;51.70;;;;;;4962522;28;20225;-23
2021/12/14 09:09:14;;;;;;;1.20;1.10;;;21.90;51.00;;;;;;4979410;28;20245;-23
2021/12/14 09:11:44;;;;;;;2.40;1.00;;;22.60;50.00;;;;;;4979555;28;20220;-23
2021/12/14 09:14:13;;;;;;;1.43;1.30;;;23.40;48.50;;;;;;4962372;28;20290;-23
2021/12/14 09:16:42;;;;;;;1.20;1.10;;;23.60;47.60;;;;;;4962625;28;20245;-21
2021/12/14 09:19:20;;;;;;;3.90;1.10;;;23.90;47.50;;;;;;4979232;28;20203;-24
2021/12/14 09:21:51;;;;;;;1.80;1.07;;;24.10;46.80;;;;;;4963014;28;20889;-23
2021/12/14 09:24:20;;;;;;;1.90;1.20;;;24.20;46.60;;;;;;4979714;28;20206;-23
2021/12/14 09:26:54;;;;;;;1.57;1.30;;;24.10;46.50;;;;;;4961904;28;20329;-20
2021/12/14 09:29:22;;;;;;;1.13;1.03;;;24.10;46.50;;;;;;4956866;28;20205;-26
2021/12/14 09:31:53;;;;;;;1.20;1.10;;;24.00;46.50;;;;;;4979120;28;20305;-23
2021/12/14 09:34:24;;;;;;;1.63;1.40;;;23.90;46.70;;;;;;4962587;28;20225;-22
2021/12/14 09:36:51;;;;;;;1.80;1.30;;;23.50;46.90;;;;;;4962064;28;20237;-21
2021/12/14 09:39:21;;;;;;;1.83;1.40;;;23.40;47.20;;;;;;4962749;28;20203;-24
2021/12/14 09:41:57;;;;;;;1.40;1.20;;;23.20;47.50;;;;;;4979059;28;20206;-23
2021/12/14 09:44:26;;;;;;;1.60;1.20;;;23.00;47.70;;;;;;4962523;28;20199;-26
2021/12/14 09:46:54;;;;;;;2.60;1.40;;;22.80;48.10;;;;;;4979479;28;20595;-24
2021/12/14 09:49:20;;;;;;;1.47;1.13;;;22.60;48.50;;;;;;4992210;28;20328;-21
2021/12/14 09:51:50;;;;;;;1.90;1.40;;;22.40;48.70;;;;;;4981649;28;20360;-20
2021/12/14 09:54:20;;;;;;;1.40;1.30;;;22.30;49.10;;;;;;4981700;28;20669;-22
2021/12/14 09:56:50;;;;;;;1.60;1.43;;;22.10;49.50;;;;;;4980864;28;20674;-23
2021/12/14 09:59:16;;;;;;;1.30;1.20;;;21.90;49.90;;;;;;4998373;28;20196;-22
2021/12/14 10:01:58;;;;;;;1.93;1.30;;;21.70;50.20;;;;;;4981517;28;20217;-24
2021/12/14 10:04:32;;;;;;;1.50;1.40;;;21.50;50.70;;;;;;4997638;28;20186;-22
2021/12/14 10:07:02;;;;;;;1.60;1.50;;;21.30;51.10;;;;;;4981132;28;20267;-21
2021/12/14 10:09:31;;;;;;;1.70;1.60;;;21.20;51.60;;;;;;4980128;28;20209;-21
2021/12/14 10:12:18;;;;;;;2.80;1.40;;;21.00;51.90;;;;;;4981499;28;20208;-23
2021/12/14 10:14:46;;;;;;;1.60;1.47;;;21.00;52.30;;;;;;4998601;28;20202;-26
2021/12/14 10:17:15;;;;;;;1.50;1.33;;;20.90;52.60;;;;;;4981090;28;20204;-24
2021/12/14 10:19:43;;;;;;;2.03;1.70;;;20.90;52.70;;;;;;4980782;28;20251;-24
2021/12/14 10:22:25;;;;;;;1.47;1.37;;;21.00;52.80;;;;;;4997989;28;20206;-23
2021/12/14 10:25:02;;;;;;;2.33;1.60;;;21.10;52.80;;;;;;4980821;28;20706;-22
2021/12/14 10:27:31;;;;;;;3.23;1.50;;;21.40;52.40;;;;;;4997318;28;20239;-23
2021/12/14 10:29:59;;;;;;;2.93;1.73;;;21.70;51.90;;;;;;4979987;28;20699;-23
2021/12/14 10:32:30;;;;;;;2.00;1.60;;;21.90;51.30;;;;;;4996987;28;20311;-22
2021/12/14 10:35:02;;;;;;;2.03;1.80;;;22.10;50.90;;;;;;4996197;28;20295;-23
2021/12/14 10:43:19;;;;;;;6.07;2.20;;;22.50;50.00;;;;;;4997163;28;20216;-23
2021/12/14 10:46:14;;;;;;;8.77;2.10;;;22.80;50.40;;;;;;4996935;28;20214;-24
2021/12/14 10:48:44;;;;;;;8.13;1.97;;;23.10;49.60;;;;;;4995643;28;20322;-23
2021/12/14 10:51:13;;;;;;;4.07;1.83;;;23.00;49.50;;;;;;4979300;28;20208;-22
2021/12/14 10:53:42;;;;;;;5.27;2.17;;;22.90;49.50;;;;;;4996946;28;20216;-23
2021/12/14 10:56:13;;;;;;;4.20;2.23;;;22.80;49.60;;;;;;4996863;28;20192;-25
2021/12/14 10:58:40;;;;;;;4.53;2.20;;;22.70;49.80;;;;;;4979914;28;20200;-24
2021/12/14 11:01:14;;;;;;;2.90;2.00;;;22.60;50.00;;;;;;4979916;28;20205;-24
2021/12/14 11:03:47;;;;;;;4.77;2.20;;;22.40;50.30;;;;;;4996678;28;20180;-23
2021/12/14 11:06:16;;;;;;;2.90;1.97;;;22.30;50.50;;;;;;4996602;28;20233;-24
2021/12/14 11:11:53;;;;;;;5.07;2.10;;;21.90;51.20;;;;;;4917813;29;20621;-23
2021/12/14 11:14:26;;;;;;;3.77;2.23;;;21.70;51.70;;;;;;4917164;29;20278;-25
2021/12/14 11:19:54;;;;;;;2.80;2.40;;;21.40;52.60;;;;;;4996978;28;20215;-24
2021/12/14 11:22:27;;;;;;;4.20;2.20;;;21.20;53.10;;;;;;4996863;28;20279;-25
2021/12/14 11:25:05;;;;;;;4.37;2.20;;;21.10;53.50;;;;;;4997604;28;20774;-23
2021/12/14 11:27:41;;;;;;;2.87;2.40;;;20.90;53.90;;;;;;4996865;28;20364;-23
2021/12/14 11:30:15;;;;;;;3.93;2.27;;;20.80;54.30;;;;;;4996965;28;20567;-23
2021/12/14 11:32:45;;;;;;;5.17;2.40;;;20.70;54.70;;;;;;4996095;28;20193;-23
2021/12/14 11:35:22;;;;;;;2.57;2.30;;;20.70;55.10;;;;;;4996354;28;20197;-22
2021/12/14 11:37:48;;;;;;;2.80;2.40;;;20.60;55.30;;;;;;4979434;28;20263;-23
2021/12/14 11:40:15;;;;;;;3.20;2.47;;;20.70;55.30;;;;;;4979194;28;20555;-22
2021/12/14 11:42:41;;;;;;;2.90;2.43;;;20.70;55.00;;;;;;4995977;28;20229;-23
2021/12/14 11:45:20;;;;;;;2.73;2.50;;;20.80;54.90;;;;;;4979780;28;20295;-24
2021/12/14 11:47:58;;;;;;;2.47;2.23;;;20.90;54.70;;;;;;4996840;28;20214;-22
2021/12/14 11:50:46;;;;;;;3.27;2.47;;;21.10;54.30;;;;;;4979276;28;20268;-23
2021/12/14 11:53:17;;;;;;;2.70;2.20;;;21.20;54.00;;;;;;4991306;28;20288;-24
2021/12/14 11:56:05;;;;;;;3.77;2.40;;;21.40;53.50;;;;;;4995946;28;20203;-22
2021/12/14 11:58:33;;;;;;;2.80;2.40;;;21.80;52.80;;;;;;4995191;28;20489;-22
2021/12/14 12:01:02;;;;;;;4.53;2.80;;;22.20;51.80;;;;;;4977924;28;20302;-23
2021/12/14 12:03:33;;;;;;;4.87;2.60;;;22.50;51.10;;;;;;4995468;28;20225;-23
2021/12/14 12:06:43;;;;;;;3.73;2.47;;;22.60;50.70;;;;;;4978459;28;20272;-23
2021/12/14 12:09:34;;;;;;;4.20;2.73;;;22.70;50.40;;;;;;4979382;28;20201;-25
2021/12/14 12:12:03;;;;;;;4.07;2.70;;;22.90;50.00;;;;;;4979011;28;20190;-22
2021/12/14 12:14:44;;;;;;;5.87;2.83;;;23.00;49.80;;;;;;4978572;28;20197;-22
2021/12/14 12:17:15;;;;;;;5.20;3.27;;;23.00;49.50;;;;;;4978409;28;20198;-23
2021/12/14 12:19:52;;;;;;;4.30;2.73;;;22.90;49.50;;;;;;4977808;28;20194;-25
2021/12/14 12:22:18;;;;;;;3.40;3.10;;;22.80;49.60;;;;;;4995363;28;20197;-23
2021/12/14 12:24:52;;;;;;;5.47;2.80;;;22.70;49.80;;;;;;4995402;28;20249;-23
2021/12/14 12:27:24;;;;;;;4.17;2.80;;;22.50;50.00;;;;;;4998090;28;20220;-22
2021/12/14 12:30:13;;;;;;;5.87;3.00;;;22.30;50.40;;;;;;4978534;28;20745;-21
2021/12/14 12:32:39;;;;;;;6.07;3.00;;;22.10;50.70;;;;;;4982282;28;20205;-22
2021/12/14 12:35:26;;;;;;;4.80;3.10;;;21.90;51.10;;;;;;4998775;28;20609;-21
2021/12/14 12:37:52;;;;;;;3.57;2.70;;;21.80;51.40;;;;;;4981568;28;20618;-23
2021/12/14 12:40:30;;;;;;;5.10;2.53;;;21.60;51.80;;;;;;4998271;28;20285;-25
2021/12/14 12:43:13;;;;;;;3.30;2.80;;;21.30;52.30;;;;;;4998615;28;20613;-22
2021/12/14 12:45:41;;;;;;;6.10;3.07;;;21.10;52.90;;;;;;4998790;28;20307;-24
2021/12/14 12:48:06;;;;;;;5.07;3.17;;;20.90;53.60;;;;;;4982384;28;20264;-23
2021/12/14 12:50:32;;;;;;;3.93;2.83;;;20.70;54.10;;;;;;4999420;28;20193;-22
2021/12/14 12:52:58;;;;;;;4.23;3.20;;;20.50;54.80;;;;;;4982615;28;20201;-23
2021/12/14 12:55:34;;;;;;;5.20;2.90;;;20.30;55.50;;;;;;4981213;28;20204;-23
2021/12/14 12:58:12;;;;;;;5.60;3.50;;;20.20;56.10;;;;;;4998764;28;20188;-24
2021/12/14 13:00:45;;;;;;;4.10;2.73;;;20.10;56.60;;;;;;4981801;28;20236;-27
2021/12/14 13:03:15;;;;;;;5.30;3.20;;;20.10;57.00;;;;;;4999490;28;20243;-20
2021/12/14 13:05:50;;;;;;;4.87;2.70;;;20.20;56.90;;;;;;4999105;28;20579;-25
2021/12/14 13:08:27;;;;;;;3.17;2.80;;;20.40;56.60;;;;;;4982336;28;20272;-23
2021/12/14 13:10:57;;;;;;;5.70;3.40;;;20.80;55.50;;;;;;4998788;28;20294;-22
2021/12/14 13:13:27;;;;;;;4.13;2.90;;;21.40;54.10;;;;;;4981494;28;20224;-24
2021/12/14 13:16:30;;;;;;;6.17;3.00;;;22.00;52.70;;;;;;4981766;28;20318;-24
2021/12/14 13:19:26;;;;;;;3.83;3.30;;;22.60;51.20;;;;;;4981412;28;20586;-25
2021/12/14 13:21:57;;;;;;;3.53;3.03;;;23.20;49.90;;;;;;4998851;28;20201;-26
2021/12/14 13:24:37;;;;;;;5.80;3.17;;;23.60;48.90;;;;;;4998177;28;20224;-22
2021/12/14 13:27:24;;;;;;;4.27;3.03;;;24.00;48.10;;;;;;4981178;28;20252;-22
2021/12/14 13:29:54;;;;;;;3.27;2.97;;;24.20;47.70;;;;;;4998400;28;20202;-23
2021/12/14 13:32:26;;;;;;;3.60;3.30;;;24.20;47.50;;;;;;4981255;28;20205;-23
2021/12/14 13:35:06;;;;;;;6.63;3.17;;;24.10;47.50;;;;;;4980489;28;20198;-24
2021/12/14 13:37:41;;;;;;;5.10;3.13;;;23.90;47.60;;;;;;4998050;28;20260;-26
2021/12/14 13:40:12;;;;;;;5.37;3.20;;;23.70;47.80;;;;;;4997457;28;20228;-22
2021/12/14 13:43:09;;;;;;;4.23;3.40;;;23.50;48.10;;;;;;4998401;28;20194;-22
2021/12/14 13:45:38;;;;;;;4.20;3.10;;;23.30;48.50;;;;;;4980390;28;20229;-23
2021/12/14 13:48:07;;;;;;;5.27;3.20;;;23.00;48.90;;;;;;4964335;28;20209;-26
2021/12/14 13:50:42;;;;;;;5.23;3.47;;;22.80;49.30;;;;;;4980105;28;20198;-24
2021/12/14 13:53:09;;;;;;;3.37;3.03;;;22.50;49.70;;;;;;4997175;28;20273;-24
2021/12/14 13:55:44;;;;;;;3.53;3.23;;;22.30;50.10;;;;;;4997699;28;20284;-24
2021/12/14 13:58:25;;;;;;;5.07;3.40;;;22.10;50.70;;;;;;4997883;28;20192;-25